Stations météo

réclame
Mon MeteoGroup
Cardiff, Grande-Bretagne (3715): Température de l'air & dewpoint: 11.12.2018 00:00:00 - 17.12.2018 00:00:00 (GMT)Cardiff, Grande-Bretagne (3715): Vitesse du vent: 11.12.2018 00:00:00 - 17.12.2018 00:00:00 (GMT)Cardiff, Grande-Bretagne (3715): Direction du vent: 11.12.2018 00:00:00 - 17.12.2018 00:00:00 (GMT)Cardiff, Grande-Bretagne (3715): visibility: 11.12.2018 00:00:00 - 17.12.2018 00:00:00 (GMT)
Date & Time tt [°C] td [°C] ff [km/h] ff [knt] dd vv [km]
17.12.2018 00:00:00 6,0 5,0 11 6 WNW 10
16.12.2018 23:00:00 5,0 5,0 11 6 NW 10
16.12.2018 22:00:00 6,0 6,0 18 10 WNW 10
16.12.2018 21:00:00 7,0 6,0 24 13 WNW 10
16.12.2018 20:00:00 8,0 6,0 26 14 WNW 10
16.12.2018 19:00:00 7,0 7,0 26 14 W 10
16.12.2018 18:00:00 7,0 7,0 5 3 - 10
16.12.2018 17:00:00 7,0 7,0 8 4 ESE 10
16.12.2018 16:00:00 8,0 6,0 11 6 SSE 10
16.12.2018 15:00:00 7,0 6,0 15 8 S 10
16.12.2018 14:00:00 8,0 6,0 18 10 SSE 10
16.12.2018 13:00:00 8,0 6,0 18 10 SE 10
16.12.2018 12:00:00 8,0 6,0 13 7 SE 10
16.12.2018 11:00:00 8,0 6,0 11 6 S 10
16.12.2018 10:00:00 7,0 5,0 9 5 SE 10
16.12.2018 09:00:00 7,0 5,0 13 7 S 10
16.12.2018 08:00:00 7,0 5,0 11 6 WSW 10
16.12.2018 07:00:00 7,0 5,0 13 7 WSW 10
16.12.2018 06:00:00 8,0 6,0 13 7 WSW 10
16.12.2018 05:00:00 8,0 6,0 18 10 WSW 10
16.12.2018 04:00:00 8,0 6,0 21 11 WSW 10
16.12.2018 03:00:00 8,0 5,0 26 14 W 10
16.12.2018 02:00:00 9,0 6,0 24 13 WSW 10
16.12.2018 01:00:00 8,0 6,0 22 12 WSW 10
16.12.2018 00:00:00 9,0 6,0 24 13 W 10
15.12.2018 23:00:00 9,0 6,0 31 17 W 10
15.12.2018 22:00:00 8,0 6,0 35 19 W 10
15.12.2018 21:00:00 9,0 6,0 37 20 W 10
15.12.2018 20:00:00 9,0 6,0 41 22 WSW 10
15.12.2018 19:00:00 9,0 7,0 37 20 WSW 10
15.12.2018 18:00:00 10,0 7,0 35 19 WSW 10
15.12.2018 17:00:00 10,0 7,0 39 21 WSW 10
15.12.2018 16:00:00 7,0 7,0 39 21 SE 10
15.12.2018 15:00:00 6,0 6,0 46 25 SE 7
15.12.2018 14:00:00 6,0 6,0 37 20 SE 10
15.12.2018 13:00:00 6,0 6,0 42 23 SE 10
15.12.2018 12:00:00 6,0 6,0 37 20 SE 2,5
15.12.2018 11:00:00 6,0 6,0 34 18 ESE 7
15.12.2018 10:00:00 5,0 5,0 39 21 ESE 4,0
15.12.2018 09:00:00 4,0 4,0 37 20 ESE 2,0
15.12.2018 08:00:00 4,0 4,0 37 20 ESE 4,0
15.12.2018 07:00:00 4,0 3,0 41 22 ESE 4,0
15.12.2018 06:00:00 4,0 2,0 35 19 ESE 6
15.12.2018 05:00:00 4,0 2,0 37 20 ESE 6
15.12.2018 04:00:00 4,0 2,0 37 20 ESE 5
15.12.2018 03:00:00 4,0 1,0 34 18 ESE 10
15.12.2018 02:00:00 5,0 1,0 34 18 SE 10
15.12.2018 01:00:00 4,0 1,0 28 15 ESE 10
15.12.2018 00:00:00 4,0 1,0 28 15 ESE 10
14.12.2018 23:00:00 4,0 1,0 29 16 ESE 10
14.12.2018 22:00:00 4,0 1,0 29 16 ESE 10
14.12.2018 21:00:00 4,0 1,0 28 15 ESE 10
14.12.2018 20:00:00 4,0 1,0 29 16 SE 10
14.12.2018 19:00:00 4,0 1,0 31 17 SE 10
14.12.2018 18:00:00 3,0 0,0 29 16 ESE 10
14.12.2018 17:00:00 4,0 0,0 29 16 ESE 10
14.12.2018 16:00:00 4,0 0,0 24 13 ESE 10
14.12.2018 15:00:00 4,0 0,0 28 15 SE 10
14.12.2018 14:00:00 4,0 0,0 26 14 SE 10
14.12.2018 13:00:00 4,0 0,0 26 14 ESE 10
14.12.2018 12:00:00 4,0 0,0 26 14 ESE 10
14.12.2018 11:00:00 3,0 0,0 24 13 ESE 10
14.12.2018 10:00:00 3,0 -1,0 28 15 ESE 10
14.12.2018 09:00:00 2,0 -1,0 26 14 ESE 10
14.12.2018 08:00:00 1,0 -1,0 21 11 ESE 10
14.12.2018 07:00:00 2,0 0,0 21 11 E 10
14.12.2018 06:00:00 1,0 0,0 28 15 E 10
14.12.2018 05:00:00 1,0 0,0 18 10 E 10
14.12.2018 04:00:00 1,0 -1,0 16 9 E 10
14.12.2018 03:00:00 2,0 0,0 22 12 E 10
14.12.2018 02:00:00 2,0 0,0 22 12 E 10
14.12.2018 01:00:00 1,0 -1,0 22 12 E 10
14.12.2018 00:00:00 2,0 -1,0 18 10 E 10
13.12.2018 23:00:00 2,0 -1,0 24 13 E 10
13.12.2018 22:00:00 2,0 -1,0 18 10 E 10
13.12.2018 21:00:00 2,0 -1,0 22 12 E 10
13.12.2018 20:00:00 3,0 -1,0 24 13 E 10
13.12.2018 19:00:00 4,0 0,0 24 13 E 10
13.12.2018 18:00:00 4,0 0,0 26 14 E 10
13.12.2018 17:00:00 4,0 0,0 31 17 E 10
13.12.2018 16:00:00 5,0 1,0 28 15 E 10
13.12.2018 15:00:00 5,0 1,0 35 19 ESE 10
13.12.2018 14:00:00 6,0 1,0 31 17 ESE 10
13.12.2018 13:00:00 6,0 2,0 29 16 E 10
13.12.2018 12:00:00 6,0 1,0 41 22 ESE 10
13.12.2018 11:00:00 5,0 2,0 37 20 ESE 10
13.12.2018 10:00:00 5,0 2,0 34 18 E 10
13.12.2018 09:00:00 5,0 1,0 41 22 ESE 10
13.12.2018 08:00:00 5,0 1,0 39 21 ESE 10
13.12.2018 07:00:00 5,0 1,0 37 20 ESE 10
13.12.2018 06:00:00 5,0 1,0 37 20 ESE 10
13.12.2018 05:00:00 5,0 1,0 28 15 ESE 10
13.12.2018 04:00:00 5,0 0,0 34 18 ESE 10
13.12.2018 03:00:00 5,0 0,0 37 20 ESE 10
13.12.2018 02:00:00 5,0 0,0 29 16 E 10
13.12.2018 01:00:00 6,0 1,0 34 18 ESE 10
13.12.2018 00:00:00 6,0 2,0 31 17 ESE 10
12.12.2018 23:00:00 6,0 3,0 29 16 ESE 10
12.12.2018 22:00:00 6,0 3,0 31 17 ESE 10
12.12.2018 21:00:00 6,0 3,0 31 17 ESE 10
12.12.2018 20:00:00 6,0 4,0 37 20 ESE 10
12.12.2018 19:00:00 6,0 4,0 34 18 ESE 10
12.12.2018 18:00:00 6,0 4,0 29 16 ESE 10
12.12.2018 17:00:00 7,0 5,0 29 16 SE 10
12.12.2018 16:00:00 7,0 5,0 34 18 SE 10
12.12.2018 15:00:00 8,0 5,0 37 20 ESE 10
12.12.2018 14:00:00 8,0 6,0 28 15 SE 10
12.12.2018 13:00:00 8,0 6,0 29 16 SE 10
12.12.2018 12:00:00 8,0 6,0 31 17 SE 10
12.12.2018 11:00:00 8,0 7,0 26 14 ESE 10
12.12.2018 10:00:00 8,0 7,0 26 14 ESE 10
12.12.2018 09:00:00 8,0 7,0 24 13 ESE 10
12.12.2018 08:00:00 8,0 8,0 26 14 SE 10
12.12.2018 07:00:00 8,0 8,0 18 10 SE 10
12.12.2018 06:00:00 8,0 8,0 21 11 SE 10
12.12.2018 05:00:00 8,0 7,0 22 12 ESE 10
12.12.2018 04:00:00 8,0 7,0 21 11 ESE 10
12.12.2018 03:00:00 8,0 7,0 22 12 ESE 10
12.12.2018 02:00:00 8,0 7,0 18 10 ESE 10
12.12.2018 01:00:00 8,0 8,0 22 12 ESE 10
12.12.2018 00:00:00 8,0 8,0 16 9 ESE 10
11.12.2018 23:00:00 8,0 8,0 21 11 ESE 10
11.12.2018 22:00:00 8,0 8,0 18 10 ESE 10
11.12.2018 21:00:00 8,0 8,0 18 10 E 10
11.12.2018 20:00:00 9,0 8,0 22 12 SE 10
11.12.2018 19:00:00 9,0 8,0 16 9 ESE 10
11.12.2018 18:00:00 9,0 8,0 13 7 ESE 10
11.12.2018 17:00:00 9,0 9,0 15 8 ESE 10
11.12.2018 16:00:00 9,0 9,0 16 9 ESE 10
11.12.2018 15:00:00 9,0 9,0 18 10 ESE 10
11.12.2018 14:00:00 9,0 9,0 21 11 SE 10
11.12.2018 13:00:00 8,0 8,0 16 9 SE 10
11.12.2018 12:00:00 9,0 9,0 18 10 SE 10
11.12.2018 11:00:00 8,0 8,0 18 10 SE 10
11.12.2018 10:00:00 8,0 8,0 16 9 SE 1,4
11.12.2018 09:00:00 8,0 8,0 13 7 SE 4,5
11.12.2018 08:00:00 8,0 8,0 11 6 ESE 10
11.12.2018 07:00:00 7,0 7,0 11 6 ESE 9
11.12.2018 06:00:00 7,0 7,0 15 8 ESE 7
11.12.2018 05:00:00 7,0 7,0 11 6 SE 7
11.12.2018 04:00:00 7,0 7,0 11 6 SE 6
11.12.2018 03:00:00 7,0 7,0 13 7 ESE 7
11.12.2018 02:00:00 8,0 8,0 9 5 ESE 10
11.12.2018 01:00:00 8,0 7,0 4 2 - 10
11.12.2018 00:00:00 8,0 7,0 8 4 S 10

tt = Température de l'air
td = dewpoint
ff = Vitesse du vent
dd = Direction du vent
vv = visibility

stations d'obs. à proximité